sensor_id;sensor_type;location;lat;lon;timestamp;noise_LAeq;noise_LA_min;noise_LA_max;noise_LA01;noise_LA95
67308;Laerm;57662;51.436;5.978;2023-09-19T00:00:08;52.10;49.46;56.27;;
67308;Laerm;57662;51.436;5.978;2023-09-19T00:00:18;52.27;49.43;56.21;;
67308;Laerm;57662;51.436;5.978;2023-09-19T00:00:32;53.04;48.87;57.98;;
67308;Laerm;57662;51.436;5.978;2023-09-19T00:00:43;52.26;50.02;54.29;;
67308;Laerm;57662;51.436;5.978;2023-09-19T00:00:57;50.90;49.42;53.27;;
67308;Laerm;57662;51.436;5.978;2023-09-19T00:01:07;50.82;49.31;53.07;;
67308;Laerm;57662;51.436;5.978;2023-09-19T00:01:18;53.45;49.63;56.71;;
67308;Laerm;57662;51.436;5.978;2023-09-19T00:01:30;52.30;49.61;55.20;;
67308;Laerm;57662;51.436;5.978;2023-09-19T00:01:41;52.00;49.56;55.01;;
67308;Laerm;57662;51.436;5.978;2023-09-19T00:01:51;53.65;51.07;56.71;;
67308;Laerm;57662;51.436;5.978;2023-09-19T00:02:02;53.57;51.49;56.65;;
67308;Laerm;57662;51.436;5.978;2023-09-19T00:02:19;52.21;50.53;54.80;;
67308;Laerm;57662;51.436;5.978;2023-09-19T00:02:29;51.41;49.96;53.37;;
67308;Laerm;57662;51.436;5.978;2023-09-19T00:02:40;51.51;49.73;53.22;;
67308;Laerm;57662;51.436;5.978;2023-09-19T00:03:04;52.88;50.56;55.14;;
67308;Laerm;57662;51.436;5.978;2023-09-19T00:03:15;54.55;51.88;57.04;;
67308;Laerm;57662;51.436;5.978;2023-09-19T00:03:26;51.73;49.09;56.41;;
67308;Laerm;57662;51.436;5.978;2023-09-19T00:03:38;50.36;48.25;57.75;;
67308;Laerm;57662;51.436;5.978;2023-09-19T00:03:48;51.24;48.81;57.08;;
67308;Laerm;57662;51.436;5.978;2023-09-19T00:03:59;50.13;48.33;52.48;;
67308;Laerm;57662;51.436;5.978;2023-09-19T00:04:13;50.36;48.18;55.09;;
67308;Laerm;57662;51.436;5.978;2023-09-19T00:04:24;50.55;48.11;56.98;;
67308;Laerm;57662;51.436;5.978;2023-09-19T00:04:39;51.86;48.88;57.56;;
67308;Laerm;57662;51.436;5.978;2023-09-19T00:04:50;53.13;49.48;57.65;;
67308;Laerm;57662;51.436;5.978;2023-09-19T00:05:02;52.97;50.01;56.17;;
67308;Laerm;57662;51.436;5.978;2023-09-19T00:05:14;51.56;49.46;55.94;;
67308;Laerm;57662;51.436;5.978;2023-09-19T00:05:27;50.82;48.34;55.04;;
67308;Laerm;57662;51.436;5.978;2023-09-19T00:05:39;49.63;48.07;51.46;;
67308;Laerm;57662;51.436;5.978;2023-09-19T00:05:49;49.65;48.30;53.47;;
67308;Laerm;57662;51.436;5.978;2023-09-19T00:06:00;50.19;48.52;54.47;;
67308;Laerm;57662;51.436;5.978;2023-09-19T00:06:11;52.63;48.82;56.78;;
67308;Laerm;57662;51.436;5.978;2023-09-19T00:06:28;50.22;48.40;55.43;;
67308;Laerm;57662;51.436;5.978;2023-09-19T00:06:41;51.10;48.40;54.24;;
67308;Laerm;57662;51.436;5.978;2023-09-19T00:06:52;50.65;48.65;53.25;;
67308;Laerm;57662;51.436;5.978;2023-09-19T00:07:04;50.11;48.83;52.20;;
67308;Laerm;57662;51.436;5.978;2023-09-19T00:07:14;50.90;49.31;55.87;;
67308;Laerm;57662;51.436;5.978;2023-09-19T00:07:26;51.51;49.12;56.59;;
67308;Laerm;57662;51.436;5.978;2023-09-19T00:07:36;50.93;49.70;52.87;;
67308;Laerm;57662;51.436;5.978;2023-09-19T00:07:46;51.14;49.61;54.58;;
67308;Laerm;57662;51.436;5.978;2023-09-19T00:07:57;56.15;49.34;65.53;;
67308;Laerm;57662;51.436;5.978;2023-09-19T00:08:11;53.40;49.28;63.12;;
67308;Laerm;57662;51.436;5.978;2023-09-19T00:08:23;51.79;49.57;55.26;;
67308;Laerm;57662;51.436;5.978;2023-09-19T00:08:34;51.18;49.44;53.22;;
67308;Laerm;57662;51.436;5.978;2023-09-19T00:08:44;51.02;49.10;53.74;;
67308;Laerm;57662;51.436;5.978;2023-09-19T00:08:55;50.73;49.33;53.14;;
67308;Laerm;57662;51.436;5.978;2023-09-19T00:09:05;52.68;49.80;57.05;;
67308;Laerm;57662;51.436;5.978;2023-09-19T00:09:20;53.62;50.51;56.17;;
67308;Laerm;57662;51.436;5.978;2023-09-19T00:09:30;52.62;49.22;56.85;;
67308;Laerm;57662;51.436;5.978;2023-09-19T00:09:47;50.89;48.74;54.56;;
67308;Laerm;57662;51.436;5.978;2023-09-19T00:09:57;51.44;48.20;54.48;;
67308;Laerm;57662;51.436;5.978;2023-09-19T00:10:07;49.47;48.34;52.61;;
67308;Laerm;57662;51.436;5.978;2023-09-19T00:10:22;49.62;48.29;51.08;;
67308;Laerm;57662;51.436;5.978;2023-09-19T00:10:34;49.87;48.30;52.09;;
67308;Laerm;57662;51.436;5.978;2023-09-19T00:10:45;50.03;48.29;52.13;;
67308;Laerm;57662;51.436;5.978;2023-09-19T00:10:56;50.83;49.34;53.80;;
67308;Laerm;57662;51.436;5.978;2023-09-19T00:11:15;50.63;48.80;52.90;;
67308;Laerm;57662;51.436;5.978;2023-09-19T00:11:25;55.29;49.01;58.09;;
67308;Laerm;57662;51.436;5.978;2023-09-19T00:11:37;55.52;49.97;61.07;;
67308;Laerm;57662;51.436;5.978;2023-09-19T00:11:51;54.19;48.76;57.65;;
67308;Laerm;57662;51.436;5.978;2023-09-19T00:12:01;50.74;48.53;55.75;;
67308;Laerm;57662;51.436;5.978;2023-09-19T00:12:12;52.17;49.94;54.35;;
67308;Laerm;57662;51.436;5.978;2023-09-19T00:12:23;51.90;49.98;56.61;;
67308;Laerm;57662;51.436;5.978;2023-09-19T00:12:34;52.11;50.11;54.63;;
67308;Laerm;57662;51.436;5.978;2023-09-19T00:12:44;52.73;50.41;58.13;;
67308;Laerm;57662;51.436;5.978;2023-09-19T00:12:54;51.52;49.67;54.01;;
67308;Laerm;57662;51.436;5.978;2023-09-19T00:13:09;52.17;49.66;54.66;;
67308;Laerm;57662;51.436;5.978;2023-09-19T00:13:23;50.85;48.48;54.27;;
67308;Laerm;57662;51.436;5.978;2023-09-19T00:13:35;50.14;48.45;54.77;;
67308;Laerm;57662;51.436;5.978;2023-09-19T00:13:48;50.46;48.37;54.19;;
67308;Laerm;57662;51.436;5.978;2023-09-19T00:14:00;50.34;48.77;53.97;;
67308;Laerm;57662;51.436;5.978;2023-09-19T00:14:10;50.10;48.66;53.89;;
67308;Laerm;57662;51.436;5.978;2023-09-19T00:14:24;50.09;48.34;52.89;;
67308;Laerm;57662;51.436;5.978;2023-09-19T00:14:35;50.29;48.77;52.68;;
67308;Laerm;57662;51.436;5.978;2023-09-19T00:14:45;50.75;49.02;54.32;;
67308;Laerm;57662;51.436;5.978;2023-09-19T00:14:56;50.10;48.93;51.70;;
67308;Laerm;57662;51.436;5.978;2023-09-19T00:15:07;50.56;48.52;53.58;;
67308;Laerm;57662;51.436;5.978;2023-09-19T00:15:17;50.61;48.76;54.28;;
67308;Laerm;57662;51.436;5.978;2023-09-19T00:15:27;50.19;48.46;54.10;;
67308;Laerm;57662;51.436;5.978;2023-09-19T00:15:41;50.54;48.65;55.79;;
67308;Laerm;57662;51.436;5.978;2023-09-19T00:15:52;49.95;48.05;52.97;;
67308;Laerm;57662;51.436;5.978;2023-09-19T00:16:08;51.21;48.40;55.25;;
67308;Laerm;57662;51.436;5.978;2023-09-19T00:16:18;51.13;48.68;55.75;;
67308;Laerm;57662;51.436;5.978;2023-09-19T00:16:29;50.81;48.44;53.16;;
67308;Laerm;57662;51.436;5.978;2023-09-19T00:16:39;51.75;49.21;56.78;;
67308;Laerm;57662;51.436;5.978;2023-09-19T00:16:51;50.35;49.03;54.67;;
67308;Laerm;57662;51.436;5.978;2023-09-19T00:17:02;50.62;49.35;51.84;;
67308;Laerm;57662;51.436;5.978;2023-09-19T00:17:18;54.63;48.36;63.39;;
67308;Laerm;57662;51.436;5.978;2023-09-19T00:17:29;49.80;48.32;52.82;;
67308;Laerm;57662;51.436;5.978;2023-09-19T00:17:42;49.90;48.66;53.07;;
67308;Laerm;57662;51.436;5.978;2023-09-19T00:17:54;49.91;48.40;52.85;;
67308;Laerm;57662;51.436;5.978;2023-09-19T00:18:05;49.80;47.56;53.16;;
67308;Laerm;57662;51.436;5.978;2023-09-19T00:18:19;50.69;48.07;61.26;;
67308;Laerm;57662;51.436;5.978;2023-09-19T00:18:31;51.53;48.51;55.93;;
67308;Laerm;57662;51.436;5.978;2023-09-19T00:18:43;53.99;48.69;56.71;;
67308;Laerm;57662;51.436;5.978;2023-09-19T00:18:53;52.75;48.30;56.52;;
67308;Laerm;57662;51.436;5.978;2023-09-19T00:19:03;50.75;48.35;54.52;;
67308;Laerm;57662;51.436;5.978;2023-09-19T00:19:14;54.02;48.72;58.19;;
67308;Laerm;57662;51.436;5.978;2023-09-19T00:19:26;53.92;49.33;57.44;;
67308;Laerm;57662;51.436;5.978;2023-09-19T00:19:36;50.49;48.91;53.42;;
67308;Laerm;57662;51.436;5.978;2023-09-19T00:19:47;50.41;48.97;52.49;;
67308;Laerm;57662;51.436;5.978;2023-09-19T00:19:58;50.39;49.02;52.50;;
67308;Laerm;57662;51.436;5.978;2023-09-19T00:20:09;50.97;49.43;55.11;;
67308;Laerm;57662;51.436;5.978;2023-09-19T00:20:23;50.11;48.75;52.30;;
67308;Laerm;57662;51.436;5.978;2023-09-19T00:20:37;49.48;48.15;51.14;;
67308;Laerm;57662;51.436;5.978;2023-09-19T00:20:48;50.13;48.07;58.07;;
67308;Laerm;57662;51.436;5.978;2023-09-19T00:20:59;51.91;48.08;56.21;;
67308;Laerm;57662;51.436;5.978;2023-09-19T00:21:09;49.88;48.40;53.64;;
67308;Laerm;57662;51.436;5.978;2023-09-19T00:21:20;49.65;48.32;51.22;;
67308;Laerm;57662;51.436;5.978;2023-09-19T00:21:33;49.55;48.21;51.72;;
67308;Laerm;57662;51.436;5.978;2023-09-19T00:21:44;52.49;48.51;57.87;;
67308;Laerm;57662;51.436;5.978;2023-09-19T00:21:55;51.57;49.61;55.31;;
67308;Laerm;57662;51.436;5.978;2023-09-19T00:22:06;50.75;48.98;54.87;;
67308;Laerm;57662;51.436;5.978;2023-09-19T00:22:17;50.64;48.84;55.47;;
67308;Laerm;57662;51.436;5.978;2023-09-19T00:22:29;50.11;48.42;51.98;;
67308;Laerm;57662;51.436;5.978;2023-09-19T00:22:40;50.88;48.78;54.01;;
67308;Laerm;57662;51.436;5.978;2023-09-19T00:22:51;49.92;48.62;53.71;;
67308;Laerm;57662;51.436;5.978;2023-09-19T00:23:03;49.88;48.12;52.82;;
67308;Laerm;57662;51.436;5.978;2023-09-19T00:23:18;50.12;48.28;55.39;;
67308;Laerm;57662;51.436;5.978;2023-09-19T00:23:29;50.62;48.34;56.56;;
67308;Laerm;57662;51.436;5.978;2023-09-19T00:23:42;50.01;48.21;54.32;;
67308;Laerm;57662;51.436;5.978;2023-09-19T00:23:52;50.34;48.66;53.40;;
67308;Laerm;57662;51.436;5.978;2023-09-19T00:24:03;52.78;51.16;54.84;;
67308;Laerm;57662;51.436;5.978;2023-09-19T00:24:13;52.50;50.02;54.59;;
67308;Laerm;57662;51.436;5.978;2023-09-19T00:24:24;51.70;48.89;56.90;;
67308;Laerm;57662;51.436;5.978;2023-09-19T00:24:34;51.69;48.86;54.91;;
67308;Laerm;57662;51.436;5.978;2023-09-19T00:24:44;50.81;49.23;53.02;;
67308;Laerm;57662;51.436;5.978;2023-09-19T00:24:56;51.98;49.68;55.79;;
67308;Laerm;57662;51.436;5.978;2023-09-19T00:25:06;51.47;49.58;53.18;;
67308;Laerm;57662;51.436;5.978;2023-09-19T00:25:20;52.15;49.50;56.17;;
67308;Laerm;57662;51.436;5.978;2023-09-19T00:25:30;53.10;49.25;56.75;;
67308;Laerm;57662;51.436;5.978;2023-09-19T00:25:42;52.88;48.48;56.84;;
67308;Laerm;57662;51.436;5.978;2023-09-19T00:25:52;53.20;49.02;56.14;;
67308;Laerm;57662;51.436;5.978;2023-09-19T00:26:07;52.51;48.93;57.12;;
67308;Laerm;57662;51.436;5.978;2023-09-19T00:26:17;55.35;48.42;58.44;;
67308;Laerm;57662;51.436;5.978;2023-09-19T00:26:28;55.03;48.55;59.01;;
67308;Laerm;57662;51.436;5.978;2023-09-19T00:26:41;56.12;48.91;60.01;;
67308;Laerm;57662;51.436;5.978;2023-09-19T00:26:51;53.47;49.52;57.72;;
67308;Laerm;57662;51.436;5.978;2023-09-19T00:27:01;53.17;49.45;57.33;;
67308;Laerm;57662;51.436;5.978;2023-09-19T00:27:11;55.81;49.61;58.24;;
67308;Laerm;57662;51.436;5.978;2023-09-19T00:27:22;55.65;52.55;58.38;;
67308;Laerm;57662;51.436;5.978;2023-09-19T00:27:32;53.96;48.96;57.65;;
67308;Laerm;57662;51.436;5.978;2023-09-19T00:27:46;51.88;48.11;56.79;;
67308;Laerm;57662;51.436;5.978;2023-09-19T00:27:57;54.54;50.04;61.00;;
67308;Laerm;57662;51.436;5.978;2023-09-19T00:28:08;52.65;48.76;56.64;;
67308;Laerm;57662;51.436;5.978;2023-09-19T00:28:19;54.91;49.18;57.59;;
67308;Laerm;57662;51.436;5.978;2023-09-19T00:28:31;57.58;50.44;60.42;;
67308;Laerm;57662;51.436;5.978;2023-09-19T00:28:41;58.21;50.67;60.62;;
67308;Laerm;57662;51.436;5.978;2023-09-19T00:28:52;58.24;49.10;61.23;;
67308;Laerm;57662;51.436;5.978;2023-09-19T00:29:02;56.31;51.45;59.41;;
67308;Laerm;57662;51.436;5.978;2023-09-19T00:29:13;52.90;50.08;56.55;;
67308;Laerm;57662;51.436;5.978;2023-09-19T00:29:26;52.28;49.23;55.25;;
67308;Laerm;57662;51.436;5.978;2023-09-19T00:29:39;51.40;48.96;53.62;;
67308;Laerm;57662;51.436;5.978;2023-09-19T00:29:49;51.36;48.96;54.46;;
67308;Laerm;57662;51.436;5.978;2023-09-19T00:30:00;51.21;49.44;54.29;;
67308;Laerm;57662;51.436;5.978;2023-09-19T00:30:11;50.95;49.10;53.32;;
67308;Laerm;57662;51.436;5.978;2023-09-19T00:30:31;49.93;48.56;52.06;;
67308;Laerm;57662;51.436;5.978;2023-09-19T00:30:44;50.32;48.48;53.69;;
67308;Laerm;57662;51.436;5.978;2023-09-19T00:30:55;51.23;48.52;54.79;;
67308;Laerm;57662;51.436;5.978;2023-09-19T00:31:07;49.61;48.39;52.13;;
67308;Laerm;57662;51.436;5.978;2023-09-19T00:31:18;50.98;48.46;53.96;;
67308;Laerm;57662;51.436;5.978;2023-09-19T00:31:29;49.51;48.30;52.59;;
67308;Laerm;57662;51.436;5.978;2023-09-19T00:31:40;50.27;48.52;55.22;;
67308;Laerm;57662;51.436;5.978;2023-09-19T00:31:50;49.88;48.37;52.54;;
67308;Laerm;57662;51.436;5.978;2023-09-19T00:32:01;50.50;48.67;55.94;;
67308;Laerm;57662;51.436;5.978;2023-09-19T00:32:13;50.85;48.51;57.32;;
67308;Laerm;57662;51.436;5.978;2023-09-19T00:32:24;50.13;48.62;52.12;;
67308;Laerm;57662;51.436;5.978;2023-09-19T00:32:34;51.69;48.71;56.40;;
67308;Laerm;57662;51.436;5.978;2023-09-19T00:32:45;54.66;49.25;58.14;;
67308;Laerm;57662;51.436;5.978;2023-09-19T00:32:57;52.28;48.33;60.43;;
67308;Laerm;57662;51.436;5.978;2023-09-19T00:33:07;51.63;48.45;60.35;;
67308;Laerm;57662;51.436;5.978;2023-09-19T00:33:18;52.30;48.76;61.44;;
67308;Laerm;57662;51.436;5.978;2023-09-19T00:33:29;51.13;48.34;54.75;;
67308;Laerm;57662;51.436;5.978;2023-09-19T00:33:39;51.45;48.80;54.74;;
67308;Laerm;57662;51.436;5.978;2023-09-19T00:33:49;50.91;48.54;55.07;;
67308;Laerm;57662;51.436;5.978;2023-09-19T00:34:00;50.40;48.36;53.82;;
67308;Laerm;57662;51.436;5.978;2023-09-19T00:34:20;55.85;49.03;61.62;;
67308;Laerm;57662;51.436;5.978;2023-09-19T00:34:30;52.19;49.43;55.68;;
67308;Laerm;57662;51.436;5.978;2023-09-19T00:34:41;51.90;49.53;56.63;;
67308;Laerm;57662;51.436;5.978;2023-09-19T00:34:52;53.33;49.75;56.94;;
67308;Laerm;57662;51.436;5.978;2023-09-19T00:35:03;54.27;50.02;58.55;;
67308;Laerm;57662;51.436;5.978;2023-09-19T00:35:13;54.07;50.37;58.64;;
67308;Laerm;57662;51.436;5.978;2023-09-19T00:35:27;52.99;49.77;57.49;;
67308;Laerm;57662;51.436;5.978;2023-09-19T00:35:37;53.17;49.47;59.15;;
67308;Laerm;57662;51.436;5.978;2023-09-19T00:35:58;50.81;49.14;54.41;;
67308;Laerm;57662;51.436;5.978;2023-09-19T00:36:08;51.82;49.22;56.19;;
67308;Laerm;57662;51.436;5.978;2023-09-19T00:36:19;51.80;48.61;55.01;;
67308;Laerm;57662;51.436;5.978;2023-09-19T00:36:29;52.07;49.81;55.81;;
67308;Laerm;57662;51.436;5.978;2023-09-19T00:36:39;51.69;49.51;55.95;;
67308;Laerm;57662;51.436;5.978;2023-09-19T00:36:50;52.05;49.61;55.63;;
67308;Laerm;57662;51.436;5.978;2023-09-19T00:37:03;51.54;49.56;54.01;;
67308;Laerm;57662;51.436;5.978;2023-09-19T00:37:13;52.39;50.79;54.25;;
67308;Laerm;57662;51.436;5.978;2023-09-19T00:37:24;51.62;49.44;55.74;;
67308;Laerm;57662;51.436;5.978;2023-09-19T00:37:35;51.48;50.08;53.72;;
67308;Laerm;57662;51.436;5.978;2023-09-19T00:37:45;51.28;49.47;58.71;;
67308;Laerm;57662;51.436;5.978;2023-09-19T00:37:56;52.55;49.62;57.35;;
67308;Laerm;57662;51.436;5.978;2023-09-19T00:38:07;53.13;50.22;62.06;;
67308;Laerm;57662;51.436;5.978;2023-09-19T00:38:17;53.95;50.25;62.19;;
67308;Laerm;57662;51.436;5.978;2023-09-19T00:38:30;52.63;49.87;57.36;;
67308;Laerm;57662;51.436;5.978;2023-09-19T00:38:42;52.24;49.69;54.99;;
67308;Laerm;57662;51.436;5.978;2023-09-19T00:38:54;51.19;49.35;54.06;;
67308;Laerm;57662;51.436;5.978;2023-09-19T00:39:05;50.76;49.39;53.96;;
67308;Laerm;57662;51.436;5.978;2023-09-19T00:39:15;50.52;49.21;53.83;;
67308;Laerm;57662;51.436;5.978;2023-09-19T00:39:26;51.03;49.34;56.72;;
67308;Laerm;57662;51.436;5.978;2023-09-19T00:39:37;51.34;49.33;55.89;;
67308;Laerm;57662;51.436;5.978;2023-09-19T00:39:48;51.23;49.00;54.12;;
67308;Laerm;57662;51.436;5.978;2023-09-19T00:39:58;51.13;48.82;54.79;;
67308;Laerm;57662;51.436;5.978;2023-09-19T00:40:10;51.57;48.70;55.93;;
67308;Laerm;57662;51.436;5.978;2023-09-19T00:40:25;51.38;49.06;55.33;;
67308;Laerm;57662;51.436;5.978;2023-09-19T00:40:36;50.58;49.02;54.03;;
67308;Laerm;57662;51.436;5.978;2023-09-19T00:40:47;50.11;48.77;52.79;;
67308;Laerm;57662;51.436;5.978;2023-09-19T00:40:57;51.97;49.26;57.53;;
67308;Laerm;57662;51.436;5.978;2023-09-19T00:41:09;52.82;49.49;56.11;;
67308;Laerm;57662;51.436;5.978;2023-09-19T00:41:20;52.91;49.06;56.61;;
67308;Laerm;57662;51.436;5.978;2023-09-19T00:41:31;52.15;49.00;56.52;;
67308;Laerm;57662;51.436;5.978;2023-09-19T00:41:41;52.18;49.71;55.10;;
67308;Laerm;57662;51.436;5.978;2023-09-19T00:41:54;52.00;49.29;55.51;;
67308;Laerm;57662;51.436;5.978;2023-09-19T00:42:05;51.24;48.87;54.26;;
67308;Laerm;57662;51.436;5.978;2023-09-19T00:42:21;50.86;49.18;54.73;;
67308;Laerm;57662;51.436;5.978;2023-09-19T00:42:31;52.73;49.42;57.38;;
67308;Laerm;57662;51.436;5.978;2023-09-19T00:42:44;51.31;48.98;56.26;;
67308;Laerm;57662;51.436;5.978;2023-09-19T00:42:57;50.36;48.47;54.01;;
67308;Laerm;57662;51.436;5.978;2023-09-19T00:43:09;49.99;48.02;52.03;;
67308;Laerm;57662;51.436;5.978;2023-09-19T00:43:20;50.12;48.44;52.94;;
67308;Laerm;57662;51.436;5.978;2023-09-19T00:43:30;50.53;48.73;52.38;;
67308;Laerm;57662;51.436;5.978;2023-09-19T00:43:44;50.51;48.83;52.94;;
67308;Laerm;57662;51.436;5.978;2023-09-19T00:43:54;51.10;48.78;55.52;;
67308;Laerm;57662;51.436;5.978;2023-09-19T00:44:05;51.96;49.28;55.52;;
67308;Laerm;57662;51.436;5.978;2023-09-19T00:44:16;52.23;49.13;54.62;;
67308;Laerm;57662;51.436;5.978;2023-09-19T00:44:28;51.71;49.76;54.28;;
67308;Laerm;57662;51.436;5.978;2023-09-19T00:44:38;51.90;49.26;55.56;;
67308;Laerm;57662;51.436;5.978;2023-09-19T00:44:50;52.05;49.72;56.66;;
67308;Laerm;57662;51.436;5.978;2023-09-19T00:45:01;53.36;49.47;60.60;;
67308;Laerm;57662;51.436;5.978;2023-09-19T00:45:14;52.78;49.95;60.52;;
67308;Laerm;57662;51.436;5.978;2023-09-19T00:45:25;51.29;49.45;55.76;;
67308;Laerm;57662;51.436;5.978;2023-09-19T00:45:35;51.76;49.09;55.54;;
67308;Laerm;57662;51.436;5.978;2023-09-19T00:45:48;50.34;48.92;52.80;;
67308;Laerm;57662;51.436;5.978;2023-09-19T00:45:59;53.36;50.98;54.78;;
67308;Laerm;57662;51.436;5.978;2023-09-19T00:46:11;51.69;49.32;54.95;;
67308;Laerm;57662;51.436;5.978;2023-09-19T00:46:21;51.70;49.66;54.83;;
67308;Laerm;57662;51.436;5.978;2023-09-19T00:46:31;53.26;49.54;55.40;;
67308;Laerm;57662;51.436;5.978;2023-09-19T00:46:42;53.48;50.09;56.03;;
67308;Laerm;57662;51.436;5.978;2023-09-19T00:46:53;50.75;49.00;54.30;;
67308;Laerm;57662;51.436;5.978;2023-09-19T00:47:05;54.76;49.53;59.38;;
67308;Laerm;57662;51.436;5.978;2023-09-19T00:47:17;51.65;49.63;53.62;;
67308;Laerm;57662;51.436;5.978;2023-09-19T00:47:28;51.74;49.12;55.29;;
67308;Laerm;57662;51.436;5.978;2023-09-19T00:47:49;51.88;49.39;57.28;;
67308;Laerm;57662;51.436;5.978;2023-09-19T00:47:59;50.63;48.81;57.28;;
67308;Laerm;57662;51.436;5.978;2023-09-19T00:48:13;52.80;49.34;56.61;;
67308;Laerm;57662;51.436;5.978;2023-09-19T00:48:24;51.53;49.45;54.68;;
67308;Laerm;57662;51.436;5.978;2023-09-19T00:48:40;52.19;50.20;54.40;;
67308;Laerm;57662;51.436;5.978;2023-09-19T00:48:53;51.85;50.09;56.34;;
67308;Laerm;57662;51.436;5.978;2023-09-19T00:49:04;50.92;49.62;56.69;;
67308;Laerm;57662;51.436;5.978;2023-09-19T00:49:15;50.23;48.38;55.91;;
67308;Laerm;57662;51.436;5.978;2023-09-19T00:49:26;50.23;49.04;52.10;;
67308;Laerm;57662;51.436;5.978;2023-09-19T00:49:37;50.83;49.15;53.50;;
67308;Laerm;57662;51.436;5.978;2023-09-19T00:49:48;50.92;49.04;55.72;;
67308;Laerm;57662;51.436;5.978;2023-09-19T00:50:03;50.14;48.65;51.86;;
67308;Laerm;57662;51.436;5.978;2023-09-19T00:50:15;50.42;48.91;54.33;;
67308;Laerm;57662;51.436;5.978;2023-09-19T00:50:27;50.66;49.27;52.76;;
67308;Laerm;57662;51.436;5.978;2023-09-19T00:50:38;50.13;48.96;51.87;;
67308;Laerm;57662;51.436;5.978;2023-09-19T00:50:53;50.51;48.71;52.68;;
67308;Laerm;57662;51.436;5.978;2023-09-19T00:51:03;50.62;49.12;53.67;;
67308;Laerm;57662;51.436;5.978;2023-09-19T00:51:14;50.37;49.01;52.25;;
67308;Laerm;57662;51.436;5.978;2023-09-19T00:51:29;51.02;49.32;53.71;;
67308;Laerm;57662;51.436;5.978;2023-09-19T00:51:40;51.01;49.59;54.53;;
67308;Laerm;57662;51.436;5.978;2023-09-19T00:51:55;50.92;49.30;53.09;;
67308;Laerm;57662;51.436;5.978;2023-09-19T00:52:06;50.91;49.31;52.89;;
67308;Laerm;57662;51.436;5.978;2023-09-19T00:52:16;50.34;49.04;52.68;;
67308;Laerm;57662;51.436;5.978;2023-09-19T00:52:30;51.34;48.78;57.99;;
67308;Laerm;57662;51.436;5.978;2023-09-19T00:52:42;50.21;49.10;52.60;;
67308;Laerm;57662;51.436;5.978;2023-09-19T00:52:54;50.51;48.81;52.16;;
67308;Laerm;57662;51.436;5.978;2023-09-19T00:53:07;50.27;48.79;52.33;;
67308;Laerm;57662;51.436;5.978;2023-09-19T00:53:19;51.70;49.15;59.10;;
67308;Laerm;57662;51.436;5.978;2023-09-19T00:53:30;50.57;48.85;52.97;;
67308;Laerm;57662;51.436;5.978;2023-09-19T00:53:41;50.22;48.84;52.12;;
67308;Laerm;57662;51.436;5.978;2023-09-19T00:53:56;50.71;49.19;52.92;;
67308;Laerm;57662;51.436;5.978;2023-09-19T00:54:08;50.74;49.21;52.23;;
67308;Laerm;57662;51.436;5.978;2023-09-19T00:54:19;50.47;48.20;52.42;;
67308;Laerm;57662;51.436;5.978;2023-09-19T00:54:29;50.29;48.79;51.96;;
67308;Laerm;57662;51.436;5.978;2023-09-19T00:54:40;50.68;48.83;57.65;;
67308;Laerm;57662;51.436;5.978;2023-09-19T00:54:51;50.51;48.63;55.91;;
67308;Laerm;57662;51.436;5.978;2023-09-19T00:55:02;50.03;48.56;52.20;;
67308;Laerm;57662;51.436;5.978;2023-09-19T00:55:15;50.61;49.11;53.13;;
67308;Laerm;57662;51.436;5.978;2023-09-19T00:55:26;50.29;48.70;53.39;;
67308;Laerm;57662;51.436;5.978;2023-09-19T00:55:40;50.26;48.46;52.31;;
67308;Laerm;57662;51.436;5.978;2023-09-19T00:55:52;49.74;48.57;54.01;;
67308;Laerm;57662;51.436;5.978;2023-09-19T00:56:03;50.41;48.56;54.82;;
67308;Laerm;57662;51.436;5.978;2023-09-19T00:56:17;51.37;48.79;56.34;;
67308;Laerm;57662;51.436;5.978;2023-09-19T00:56:28;51.38;49.11;55.32;;
67308;Laerm;57662;51.436;5.978;2023-09-19T00:56:38;52.23;49.25;56.06;;
67308;Laerm;57662;51.436;5.978;2023-09-19T00:56:50;53.23;49.31;56.83;;
67308;Laerm;57662;51.436;5.978;2023-09-19T00:57:01;52.89;49.47;58.60;;
67308;Laerm;57662;51.436;5.978;2023-09-19T00:57:12;53.32;48.24;60.92;;
67308;Laerm;57662;51.436;5.978;2023-09-19T00:57:23;58.00;49.27;62.32;;
67308;Laerm;57662;51.436;5.978;2023-09-19T00:57:34;58.98;49.08;65.61;;
67308;Laerm;57662;51.436;5.978;2023-09-19T00:57:45;52.07;48.48;56.74;;
67308;Laerm;57662;51.436;5.978;2023-09-19T00:57:55;50.57;48.89;53.74;;
67308;Laerm;57662;51.436;5.978;2023-09-19T00:58:06;49.71;48.18;54.78;;
67308;Laerm;57662;51.436;5.978;2023-09-19T00:58:19;50.00;48.66;52.59;;
67308;Laerm;57662;51.436;5.978;2023-09-19T00:58:31;50.10;48.38;53.36;;
67308;Laerm;57662;51.436;5.978;2023-09-19T00:58:46;49.85;48.01;53.40;;
67308;Laerm;57662;51.436;5.978;2023-09-19T00:58:58;49.64;48.33;53.98;;
67308;Laerm;57662;51.436;5.978;2023-09-19T00:59:08;49.75;48.21;53.96;;
67308;Laerm;57662;51.436;5.978;2023-09-19T00:59:18;51.52;48.79;55.95;;
67308;Laerm;57662;51.436;5.978;2023-09-19T00:59:29;51.62;48.56;56.53;;
67308;Laerm;57662;51.436;5.978;2023-09-19T00:59:40;51.34;48.83;56.58;;
67308;Laerm;57662;51.436;5.978;2023-09-19T00:59:50;50.44;48.48;56.86;;
67308;Laerm;57662;51.436;5.978;2023-09-19T01:00:04;50.76;48.94;56.05;;
67308;Laerm;57662;51.436;5.978;2023-09-19T01:00:18;50.12;48.20;57.22;;
67308;Laerm;57662;51.436;5.978;2023-09-19T01:00:30;49.92;48.63;54.64;;
67308;Laerm;57662;51.436;5.978;2023-09-19T01:00:42;50.94;48.23;55.51;;
67308;Laerm;57662;51.436;5.978;2023-09-19T01:00:54;50.95;48.06;58.82;;
67308;Laerm;57662;51.436;5.978;2023-09-19T01:01:06;50.62;48.50;53.61;;
67308;Laerm;57662;51.436;5.978;2023-09-19T01:01:17;50.81;49.08;54.53;;
67308;Laerm;57662;51.436;5.978;2023-09-19T01:01:27;50.96;49.11;53.72;;
67308;Laerm;57662;51.436;5.978;2023-09-19T01:01:38;50.61;48.98;53.31;;
67308;Laerm;57662;51.436;5.978;2023-09-19T01:01:49;51.16;49.68;52.71;;
67308;Laerm;57662;51.436;5.978;2023-09-19T01:02:04;50.81;49.66;52.42;;
67308;Laerm;57662;51.436;5.978;2023-09-19T01:02:15;51.17;49.69;53.29;;
67308;Laerm;57662;51.436;5.978;2023-09-19T01:02:26;52.45;48.34;56.93;;
67308;Laerm;57662;51.436;5.978;2023-09-19T01:02:40;52.59;50.71;56.63;;
67308;Laerm;57662;51.436;5.978;2023-09-19T01:02:51;52.81;50.63;57.69;;
67308;Laerm;57662;51.436;5.978;2023-09-19T01:03:01;52.60;50.42;55.29;;
67308;Laerm;57662;51.436;5.978;2023-09-19T01:03:12;51.02;48.79;57.43;;
67308;Laerm;57662;51.436;5.978;2023-09-19T01:03:23;50.43;48.67;55.46;;
67308;Laerm;57662;51.436;5.978;2023-09-19T01:03:34;50.64;48.52;54.80;;
67308;Laerm;57662;51.436;5.978;2023-09-19T01:03:44;50.94;48.34;53.58;;
67308;Laerm;57662;51.436;5.978;2023-09-19T01:03:54;50.31;47.95;53.18;;
67308;Laerm;57662;51.436;5.978;2023-09-19T01:04:05;50.90;48.88;52.93;;
67308;Laerm;57662;51.436;5.978;2023-09-19T01:04:15;51.11;48.87;54.32;;
67308;Laerm;57662;51.436;5.978;2023-09-19T01:04:27;50.82;48.92;53.68;;
67308;Laerm;57662;51.436;5.978;2023-09-19T01:04:38;51.01;48.87;53.21;;
67308;Laerm;57662;51.436;5.978;2023-09-19T01:04:48;50.84;48.95;57.52;;
67308;Laerm;57662;51.436;5.978;2023-09-19T01:04:59;50.92;49.21;54.87;;
67308;Laerm;57662;51.436;5.978;2023-09-19T01:05:10;50.43;49.03;52.81;;
67308;Laerm;57662;51.436;5.978;2023-09-19T01:05:21;50.34;48.95;52.61;;